Time;durP1;ratioP1;P1;durP2;ratioP2;P2;SDS_P1;SDS_P2;PMS_P1;PMS_P2;Temp;Humidity;BMP_temperature;BMP_pressure;BME280_temperature;BME280_humidity;BME280_pressure;Samples;Min_cycle;Max_cycle;Signal;HPM_P1;HPM_P2
2021/08/21 00:02:23;;;;;;;5.85;3.80;;;;;;;26.30;nan;95029.19;4946346;28;20652;-71
2021/08/21 00:04:51;;;;;;;4.53;3.78;;;;;;;26.25;nan;95021.06;4949108;28;20594;-72
2021/08/21 00:07:16;;;;;;;5.07;3.97;;;;;;;26.21;nan;95026.13;4950407;29;20781;-71
2021/08/21 00:09:42;;;;;;;5.68;3.72;;;;;;;26.17;nan;95025.69;4950579;29;20038;-71
2021/08/21 00:12:07;;;;;;;6.35;4.20;;;;;;;26.13;nan;95028.03;4949718;28;20039;-71
2021/08/21 00:14:33;;;;;;;4.35;3.75;;;;;;;26.13;nan;95025.28;4950908;29;20114;-71
2021/08/21 00:16:59;;;;;;;5.20;4.03;;;;;;;26.11;nan;95027.06;4948301;28;20568;-71
2021/08/21 00:19:25;;;;;;;5.75;3.90;;;;;;;26.08;nan;95028.84;4948537;29;20062;-72
2021/08/21 00:21:50;;;;;;;7.15;4.40;;;;;;;26.03;nan;95026.97;4948839;29;20027;-71
2021/08/21 00:24:16;;;;;;;6.28;4.40;;;;;;;26.00;nan;95033.50;4931359;29;20031;-71
2021/08/21 00:26:41;;;;;;;7.10;4.25;;;;;;;26.01;nan;95034.97;4948440;29;20634;-72
2021/08/21 00:29:06;;;;;;;6.13;4.35;;;;;;;25.96;nan;95041.28;4949748;29;20023;-72
2021/08/21 00:31:32;;;;;;;6.90;4.75;;;;;;;25.92;nan;95038.13;4951745;28;20031;-72
2021/08/21 00:33:57;;;;;;;7.57;4.85;;;;;;;25.89;nan;95039.16;4969629;28;20034;-72
2021/08/21 00:36:23;;;;;;;6.18;4.30;;;;;;;25.85;nan;95038.75;4967236;28;20502;-71
2021/08/21 00:38:48;;;;;;;7.82;4.95;;;;;;;25.86;nan;95040.22;4946906;28;20414;-71
2021/08/21 00:41:14;;;;;;;8.73;5.57;;;;;;;25.83;nan;95051.50;4948513;29;20019;-71
2021/08/21 00:43:39;;;;;;;9.60;4.43;;;;;;;25.78;nan;95060.50;4947920;29;20104;-72
2021/08/21 00:46:05;;;;;;;7.78;4.38;;;;;;;25.74;nan;95048.41;4950184;29;20086;-71
2021/08/21 00:48:30;;;;;;;7.68;4.88;;;;;;;25.74;nan;95049.16;4950014;29;20027;-72
2021/08/21 00:50:58;;;;;;;6.93;4.35;;;;;;;25.70;nan;95051.47;4950074;29;20499;-72
2021/08/21 00:53:25;;;;;;;5.78;4.50;;;;;;;25.63;nan;95048.56;4950103;29;20116;-72
2021/08/21 00:55:50;;;;;;;6.25;4.65;;;;;;;25.63;nan;95049.31;4968169;28;20054;-71
2021/08/21 00:58:18;;;;;;;6.50;4.32;;;;;;;25.58;nan;95041.19;4967509;28;20070;-72
2021/08/21 01:00:44;;;;;;;9.27;4.70;;;;;;;25.54;nan;95051.69;4967685;28;20042;-72
2021/08/21 01:03:09;;;;;;;8.98;4.53;;;;;;;25.51;nan;95047.28;4968494;28;20870;-71
2021/08/21 01:05:35;;;;;;;8.88;4.78;;;;;;;25.50;nan;95045.78;4966419;28;20027;-71
2021/08/21 01:08:00;;;;;;;7.00;4.53;;;;;;;25.46;nan;95042.66;4968648;28;20626;-72
2021/08/21 01:10:25;;;;;;;9.13;4.78;;;;;;;25.45;nan;95049.38;4968898;28;20417;-72
2021/08/21 01:12:52;;;;;;;6.30;4.20;;;;;;;25.44;nan;95045.16;4949974;28;20237;-72
2021/08/21 01:15:22;;;;;;;8.02;4.60;;;;;;;25.42;nan;95050.41;4966652;28;20138;-72
2021/08/21 01:17:48;;;;;;;13.40;4.88;;;;;;;25.37;nan;95048.50;4965546;28;20522;-71
2021/08/21 01:20:13;;;;;;;6.15;3.97;;;;;;;25.35;nan;95051.00;4951249;28;20031;-71
2021/08/21 01:22:39;;;;;;;7.38;4.70;;;;;;;25.31;nan;95056.78;4962773;28;20551;-72
2021/08/21 01:25:10;;;;;;;7.32;4.30;;;;;;;25.27;nan;95055.63;4949166;29;20027;-71
2021/08/21 01:27:36;;;;;;;6.68;4.13;;;;;;;25.27;nan;95065.81;4948272;29;20430;-71
2021/08/21 01:30:01;;;;;;;7.50;4.65;;;;;;;25.23;nan;95071.59;4967345;28;20041;-71
2021/08/21 01:32:27;;;;;;;6.20;4.97;;;;;;;25.20;nan;95067.16;4968019;28;20038;-71
2021/08/21 01:34:54;;;;;;;5.55;4.10;;;;;;;25.17;nan;95056.53;4968044;28;20124;-71
2021/08/21 01:37:22;;;;;;;6.07;4.05;;;;;;;25.13;nan;95062.28;4968419;28;20512;-71
2021/08/21 01:39:49;;;;;;;8.60;4.78;;;;;;;25.10;nan;95063.34;4968175;28;20041;-71
2021/08/21 01:42:14;;;;;;;6.05;4.05;;;;;;;25.08;nan;95054.94;4968258;28;20026;-72
2021/08/21 01:44:41;;;;;;;7.75;4.50;;;;;;;25.07;nan;95063.66;4957097;28;20031;-72
2021/08/21 01:47:07;;;;;;;7.32;4.53;;;;;;;25.08;nan;95054.16;4949118;29;20071;-72
2021/08/21 01:49:32;;;;;;;7.03;4.25;;;;;;;25.05;nan;95055.97;4948249;29;20559;-71
2021/08/21 01:52:00;;;;;;;5.45;4.32;;;;;;;25.05;nan;95061.44;4948835;29;20086;-71
2021/08/21 01:54:25;;;;;;;8.25;4.40;;;;;;;25.04;nan;95070.16;4948585;28;20070;-71
2021/08/21 01:56:52;;;;;;;9.43;4.65;;;;;;;25.02;nan;95059.75;4947464;29;20027;-71
2021/08/21 01:59:39;;;;;;;6.07;4.90;;;;;;;24.99;nan;95057.28;4943844;28;20039;-71
2021/08/21 02:02:05;;;;;;;6.70;4.20;;;;;;;24.99;nan;95063.50;4966061;28;20118;-71
2021/08/21 02:04:30;;;;;;;7.63;4.60;;;;;;;24.96;nan;95058.28;4967008;28;20622;-71
2021/08/21 02:06:56;;;;;;;5.93;4.70;;;;;;;24.91;nan;95065.31;4950720;28;20053;-71
2021/08/21 02:09:22;;;;;;;6.45;4.28;;;;;;;24.90;nan;95066.59;4960684;28;20082;-72
2021/08/21 02:11:49;;;;;;;6.80;4.30;;;;;;;24.90;nan;95065.81;4958492;28;20062;-72
2021/08/21 02:14:15;;;;;;;5.93;4.38;;;;;;;24.87;nan;95075.81;4947143;29;20027;-70
2021/08/21 02:16:41;;;;;;;7.40;4.43;;;;;;;24.83;nan;95078.09;4946712;29;20027;-71
2021/08/21 02:19:06;;;;;;;6.65;4.25;;;;;;;24.84;nan;95056.97;4964182;28;20230;-70
2021/08/21 02:21:32;;;;;;;6.70;4.28;;;;;;;24.82;nan;95071.16;4967187;28;20498;-70
2021/08/21 02:23:58;;;;;;;7.30;4.35;;;;;;;24.80;nan;95066.72;4949220;28;20031;-70
2021/08/21 02:26:24;;;;;;;6.88;4.88;;;;;;;24.79;nan;95076.19;4947969;28;20154;-71
2021/08/21 02:28:50;;;;;;;7.57;4.68;;;;;;;24.77;nan;95073.22;4946701;29;20521;-71
2021/08/21 02:31:15;;;;;;;6.07;4.20;;;;;;;24.74;nan;95079.69;4942382;28;20035;-71
2021/08/21 02:33:41;;;;;;;7.80;4.72;;;;;;;24.69;nan;95083.25;4947620;29;20035;-71
2021/08/21 02:36:06;;;;;;;6.57;4.90;;;;;;;24.68;nan;95070.84;4947131;29;20027;-71
2021/08/21 02:38:31;;;;;;;7.88;4.60;;;;;;;24.67;nan;95074.84;4951145;28;20482;-71
2021/08/21 02:40:58;;;;;;;6.38;4.60;;;;;;;24.69;nan;95072.31;4948046;29;20031;-71
2021/08/21 02:43:23;;;;;;;6.68;4.32;;;;;;;24.62;nan;95072.91;4946736;29;20042;-71
2021/08/21 02:45:49;;;;;;;6.13;4.00;;;;;;;24.59;nan;95063.78;4946278;29;20023;-71
2021/08/21 02:48:14;;;;;;;6.47;4.53;;;;;;;24.59;nan;95079.44;4947706;29;20027;-71
2021/08/21 02:50:40;;;;;;;7.78;4.63;;;;;;;24.57;nan;95076.44;4930511;29;20486;-71
2021/08/21 02:53:05;;;;;;;6.60;4.57;;;;;;;24.55;nan;95089.88;4946189;28;20035;-71
2021/08/21 02:55:31;;;;;;;7.03;5.07;;;;;;;24.51;nan;95090.19;4946456;29;20058;-70
2021/08/21 02:57:56;;;;;;;6.78;4.50;;;;;;;24.52;nan;95080.00;4946581;29;20045;-71
2021/08/21 03:00:22;;;;;;;7.05;4.55;;;;;;;24.48;nan;95090.47;4946431;29;20043;-71
2021/08/21 03:02:47;;;;;;;5.75;4.32;;;;;;;24.46;nan;95092.97;4947044;29;20027;-71
2021/08/21 03:05:13;;;;;;;8.30;4.63;;;;;;;24.42;nan;95093.28;4928215;28;20032;-72
2021/08/21 03:07:38;;;;;;;5.80;4.50;;;;;;;24.40;nan;95095.75;4965511;28;20066;-73
2021/08/21 03:10:04;;;;;;;5.72;4.30;;;;;;;24.40;nan;95090.31;4965755;28;20073;-71
2021/08/21 03:12:31;;;;;;;7.60;4.25;;;;;;;24.42;nan;95097.97;4953380;28;20110;-70
2021/08/21 03:14:56;;;;;;;5.78;4.55;;;;;;;24.40;nan;95095.03;4946245;29;20037;-70
2021/08/21 03:17:22;;;;;;;7.05;4.50;;;;;;;24.36;nan;95095.34;4945956;28;20023;-71
2021/08/21 03:19:47;;;;;;;5.72;4.57;;;;;;;24.36;nan;95100.03;4946313;29;20078;-71
2021/08/21 03:22:13;;;;;;;5.95;4.43;;;;;;;24.36;nan;95094.56;4946945;29;20508;-71
2021/08/21 03:24:38;;;;;;;7.85;4.75;;;;;;;24.29;nan;95102.56;4946096;29;20553;-70
2021/08/21 03:27:04;;;;;;;8.13;4.72;;;;;;;24.29;nan;95099.84;4944410;28;20031;-71
2021/08/21 03:29:29;;;;;;;7.97;4.65;;;;;;;24.26;nan;95101.63;4946150;28;20486;-70
2021/08/21 03:31:54;;;;;;;7.90;4.78;;;;;;;24.22;nan;95106.63;4946397;28;20031;-71
2021/08/21 03:34:24;;;;;;;7.25;4.38;;;;;;;24.25;nan;95111.06;4945882;29;20028;-71
2021/08/21 03:36:49;;;;;;;8.02;4.63;;;;;;;24.24;nan;95114.28;4946574;28;20023;-71
2021/08/21 03:39:15;;;;;;;7.65;5.10;;;;;;;24.23;nan;95112.81;4968113;28;20034;-71
2021/08/21 03:41:40;;;;;;;7.88;4.68;;;;;;;24.20;nan;95120.03;4969794;28;20117;-70
2021/08/21 03:44:06;;;;;;;10.85;5.00;;;;;;;24.19;nan;95118.56;4970377;28;20424;-71
2021/08/21 03:46:31;;;;;;;6.13;4.28;;;;;;;24.18;nan;95117.06;4956597;28;20035;-71
2021/08/21 03:48:57;;;;;;;7.65;4.75;;;;;;;24.16;nan;95114.13;4950965;29;20086;-70
2021/08/21 03:51:22;;;;;;;9.13;4.82;;;;;;;24.14;nan;95116.63;4932494;29;20533;-71
2021/08/21 03:53:48;;;;;;;5.80;4.32;;;;;;;24.14;nan;95116.63;4950523;29;20455;-71
2021/08/21 03:56:13;;;;;;;8.90;5.00;;;;;;;24.12;nan;95113.66;4956206;28;20557;-71
2021/08/21 03:58:38;;;;;;;6.97;5.20;;;;;;;24.10;nan;95121.63;4968986;28;20064;-70
2021/08/21 04:01:04;;;;;;;7.40;5.07;;;;;;;24.09;nan;95125.59;4967459;28;20505;-71
2021/08/21 04:03:29;;;;;;;6.53;4.93;;;;;;;24.07;nan;95139.00;4967612;28;20046;-71
2021/08/21 04:05:55;;;;;;;7.47;5.15;;;;;;;24.07;nan;95133.56;4969189;28;20625;-71
2021/08/21 04:08:20;;;;;;;7.90;4.80;;;;;;;24.02;nan;95137.09;4961392;28;20035;-71
2021/08/21 04:10:46;;;;;;;9.35;5.05;;;;;;;23.99;nan;95132.66;4950959;29;20031;-70
2021/08/21 04:13:11;;;;;;;8.27;5.65;;;;;;;24.02;nan;95142.53;4949975;28;20062;-71
2021/08/21 04:15:36;;;;;;;9.43;5.60;;;;;;;24.01;nan;95146.50;4950191;29;20426;-71
2021/08/21 04:18:02;;;;;;;9.60;5.40;;;;;;;24.01;nan;95140.31;4948729;28;20035;-71
2021/08/21 04:20:27;;;;;;;8.57;4.90;;;;;;;24.02;nan;95137.09;4950130;29;20038;-70
2021/08/21 04:22:53;;;;;;;8.13;5.00;;;;;;;24.00;nan;95149.75;4949238;29;20031;-70
2021/08/21 04:25:18;;;;;;;7.18;5.25;;;;;;;24.00;nan;95145.03;4951928;28;20493;-72
2021/08/21 04:27:44;;;;;;;8.98;5.00;;;;;;;23.99;nan;95154.47;4968766;28;20023;-71
2021/08/21 04:30:10;;;;;;;6.82;5.13;;;;;;;24.00;nan;95150.47;4968924;28;20026;-71
2021/08/21 04:32:35;;;;;;;9.80;5.10;;;;;;;24.00;nan;95155.94;4968608;28;20078;-71
2021/08/21 04:35:01;;;;;;;6.45;4.90;;;;;;;23.98;nan;95147.53;4969038;28;20034;-71
2021/08/21 04:37:26;;;;;;;6.28;4.93;;;;;;;23.99;nan;95149.00;4969372;28;20031;-71
2021/08/21 04:39:52;;;;;;;6.93;4.65;;;;;;;24.01;nan;95162.88;4967490;28;20046;-70
2021/08/21 04:42:17;;;;;;;7.35;4.90;;;;;;;24.01;nan;95157.41;4968243;28;20045;-72
2021/08/21 04:44:42;;;;;;;6.97;4.70;;;;;;;24.01;nan;95168.34;4968167;28;20035;-71
2021/08/21 04:47:08;;;;;;;11.00;5.38;;;;;;;24.01;nan;95157.41;4956331;28;20086;-72
2021/08/21 04:49:34;;;;;;;8.07;5.20;;;;;;;24.02;nan;95164.38;4949837;28;20069;-71
2021/08/21 04:51:59;;;;;;;8.88;5.07;;;;;;;24.03;nan;95160.38;4947931;29;20038;-71
2021/08/21 04:54:25;;;;;;;11.35;5.05;;;;;;;24.03;nan;95157.63;4950266;28;20083;-69
2021/08/21 04:56:50;;;;;;;6.93;4.60;;;;;;;24.08;nan;95167.03;4950779;28;20027;-69
2021/08/21 04:59:16;;;;;;;8.43;5.38;;;;;;;24.11;nan;95166.75;4952919;28;20027;-72
2021/08/21 05:01:41;;;;;;;6.78;4.05;;;;;;;24.12;nan;95160.03;4952751;28;20480;-72
2021/08/21 05:04:07;;;;;;;8.30;4.82;;;;;;;24.16;nan;95163.25;4948488;29;20043;-73
2021/08/21 05:06:32;;;;;;;10.70;4.80;;;;;;;24.19;nan;95159.50;4947797;29;20023;-71
2021/08/21 05:08:57;;;;;;;8.13;5.20;;;;;;;24.17;nan;95163.97;4946707;29;20409;-73
2021/08/21 05:11:23;;;;;;;8.02;5.35;;;;;;;24.18;nan;95155.28;4948497;29;20024;-74
2021/08/21 05:13:48;;;;;;;9.40;5.30;;;;;;;24.19;nan;95170.41;4948364;29;20031;-72
2021/08/21 05:16:14;;;;;;;8.63;5.07;;;;;;;24.19;nan;95167.66;4948519;28;20070;-71
2021/08/21 05:18:46;;;;;;;8.13;5.10;;;;;;;24.20;nan;95166.44;4942650;29;20027;-72
2021/08/21 05:21:14;;;;;;;10.05;5.43;;;;;;;24.25;nan;95165.63;4948735;29;20023;-72
2021/08/21 05:23:40;;;;;;;7.35;5.45;;;;;;;24.27;nan;95162.38;4944670;28;20027;-71
2021/08/21 05:26:06;;;;;;;10.18;5.35;;;;;;;24.26;nan;95167.13;4951130;28;20680;-71
2021/08/21 05:28:31;;;;;;;6.38;4.57;;;;;;;24.32;nan;95175.22;4931089;29;20031;-71
2021/08/21 05:30:58;;;;;;;7.43;4.70;;;;;;;24.33;nan;95166.56;4945781;29;20023;-71
2021/08/21 05:33:23;;;;;;;6.70;5.22;;;;;;;24.40;nan;95166.72;4948744;29;20114;-70
2021/08/21 05:35:48;;;;;;;8.30;5.32;;;;;;;24.43;nan;95168.44;4948116;29;20049;-68
2021/08/21 05:38:14;;;;;;;9.88;5.32;;;;;;;24.50;nan;95175.34;4946837;29;20611;-69
2021/08/21 05:40:39;;;;;;;10.13;5.25;;;;;;;24.54;nan;95175.78;4948045;28;20034;-73
2021/08/21 05:43:05;;;;;;;10.60;4.72;;;;;;;24.60;nan;95174.47;4946065;29;20196;-72
2021/08/21 05:45:30;;;;;;;5.85;4.65;;;;;;;24.67;nan;95178.63;4945348;29;20486;-73
2021/08/21 05:47:56;;;;;;;9.25;4.95;;;;;;;24.72;nan;95180.53;4948248;29;20030;-75
2021/08/21 05:50:22;;;;;;;7.50;4.68;;;;;;;24.84;nan;95177.91;4948142;28;20414;-73
2021/08/21 05:52:50;;;;;;;6.22;4.38;;;;;;;24.91;nan;95177.31;4948119;28;20033;-74
2021/08/21 05:55:16;;;;;;;8.63;4.53;;;;;;;25.00;nan;95176.25;4945724;28;20050;-77
2021/08/21 05:57:41;;;;;;;6.53;4.70;;;;;;;25.09;nan;95182.09;4948600;28;20502;-74
2021/08/21 06:00:07;;;;;;;8.00;4.40;;;;;;;25.20;nan;95171.03;4928051;29;20048;-74
2021/08/21 06:02:33;;;;;;;6.45;4.20;;;;;;;25.27;nan;95170.44;4937579;29;20023;-74
2021/08/21 06:04:58;;;;;;;9.80;4.40;;;;;;;25.40;nan;95173.25;4945518;29;20542;-72
2021/08/21 06:07:24;;;;;;;5.90;4.07;;;;;;;25.52;nan;95175.28;4948302;28;20023;-72
2021/08/21 06:09:49;;;;;;;6.07;4.03;;;;;;;25.62;nan;95168.19;4947698;28;20031;-74
2021/08/21 06:12:14;;;;;;;7.28;4.10;;;;;;;25.72;nan;95166.56;4930917;29;20035;-70
2021/08/21 06:14:40;;;;;;;6.68;4.78;;;;;;;25.88;nan;95158.09;4947904;28;20030;-70
2021/08/21 06:17:08;;;;;;;7.40;4.25;;;;;;;26.01;nan;95155.41;4947658;28;20406;-71
2021/08/21 06:19:35;;;;;;;7.05;4.40;;;;;;;26.08;nan;95162.25;4948240;28;20113;-70
2021/08/21 06:22:00;;;;;;;8.20;4.07;;;;;;;26.13;nan;95167.63;4947689;28;20038;-73
2021/08/21 06:24:26;;;;;;;6.32;4.30;;;;;;;26.26;nan;95164.91;4930690;29;20127;-70
2021/08/21 06:26:52;;;;;;;6.93;3.83;;;;;;;26.33;nan;95164.31;4947848;28;20031;-72
2021/08/21 06:29:17;;;;;;;6.88;4.22;;;;;;;26.38;nan;95158.00;4947485;28;20055;-72
2021/08/21 06:31:43;;;;;;;7.00;4.00;;;;;;;26.56;nan;95159.91;4946258;28;20039;-79
2021/08/21 06:34:10;;;;;;;7.38;3.97;;;;;;;26.57;nan;95150.44;4947908;29;20308;-73
2021/08/21 06:36:35;;;;;;;6.72;3.90;;;;;;;26.65;nan;95156.75;4946781;29;20066;-72
2021/08/21 06:39:01;;;;;;;6.82;3.70;;;;;;;26.71;nan;95154.63;4947440;29;20027;-73
2021/08/21 06:41:26;;;;;;;10.30;4.13;;;;;;;26.77;nan;95147.81;4948034;29;20027;-74
2021/08/21 06:43:52;;;;;;;6.85;4.05;;;;;;;26.88;nan;95142.09;4947379;29;20619;-73
2021/08/21 06:46:17;;;;;;;9.10;3.45;;;;;;;26.96;nan;95143.66;4947087;29;20034;-73
2021/08/21 06:48:42;;;;;;;8.10;3.67;;;;;;;27.03;nan;95148.50;4947100;29;20019;-75
2021/08/21 06:51:08;;;;;;;6.70;3.58;;;;;;;27.11;nan;95165.06;4935236;29;20035;-72
2021/08/21 06:53:35;;;;;;;9.23;3.80;;;;;;;27.15;nan;95152.50;4946889;28;20027;-74
2021/08/21 06:56:01;;;;;;;6.10;3.53;;;;;;;27.21;nan;95147.63;4945231;28;20033;-77
2021/08/21 06:58:28;;;;;;;4.43;3.40;;;;;;;27.26;nan;95152.25;4947207;29;20038;-75
2021/08/21 07:00:54;;;;;;;4.13;3.17;;;;;;;27.28;nan;95161.44;4914631;29;20044;-73
2021/08/21 07:03:19;;;;;;;5.68;3.33;;;;;;;27.45;nan;95155.59;4929855;29;20050;-71
2021/08/21 07:05:45;;;;;;;5.00;3.00;;;;;;;27.65;nan;95157.66;4947267;28;20043;-72
2021/08/21 07:08:10;;;;;;;5.45;3.03;;;;;;;27.79;nan;95157.78;4946497;28;20102;-75
2021/08/21 07:10:36;;;;;;;7.60;3.10;;;;;;;27.90;nan;95152.03;4946924;29;20328;-71
2021/08/21 07:13:01;;;;;;;6.38;2.97;;;;;;;27.89;nan;95150.56;4945320;28;20023;-73
2021/08/21 07:15:27;;;;;;;5.18;2.90;;;;;;;27.98;nan;95141.88;4947184;28;20020;-77
2021/08/21 07:17:52;;;;;;;4.78;2.95;;;;;;;28.07;nan;95143.38;4947246;28;20023;-79
2021/08/21 07:20:18;;;;;;;7.40;2.97;;;;;;;28.22;nan;95149.03;4946934;29;20089;-77
2021/08/21 07:22:43;;;;;;;4.82;2.80;;;;;;;28.32;nan;95148.72;4946942;29;20553;-74
2021/08/21 07:25:09;;;;;;;4.43;2.50;;;;;;;28.39;nan;95158.31;4948817;28;20502;-74
2021/08/21 07:27:34;;;;;;;3.90;2.80;;;;;;;28.47;nan;95153.63;4946022;29;20031;-74
2021/08/21 07:30:00;;;;;;;4.50;2.58;;;;;;;28.55;nan;95159.88;4946393;29;20035;-73
2021/08/21 07:32:25;;;;;;;5.13;2.70;;;;;;;28.58;nan;95164.31;4929566;29;20034;-73
2021/08/21 07:34:51;;;;;;;3.88;2.58;;;;;;;28.58;nan;95164.31;4947285;29;20031;-72
2021/08/21 07:37:16;;;;;;;3.83;2.85;;;;;;;28.70;nan;95171.00;4946372;29;20053;-75
2021/08/21 07:39:41;;;;;;;5.70;2.75;;;;;;;28.75;nan;95157.84;4945134;29;20688;-74
2021/08/21 07:42:07;;;;;;;5.93;2.85;;;;;;;28.68;nan;95168.06;4946437;29;20030;-76
2021/08/21 07:44:32;;;;;;;5.18;2.72;;;;;;;28.62;nan;95164.69;4945500;28;20414;-73
2021/08/21 07:46:58;;;;;;;3.50;2.70;;;;;;;28.66;nan;95176.09;4946612;29;20038;-76
2021/08/21 07:49:23;;;;;;;5.35;2.88;;;;;;;28.74;nan;95161.88;4946702;28;20368;-73
2021/08/21 07:51:49;;;;;;;6.07;2.50;;;;;;;28.91;nan;95170.41;4945275;28;20031;-74
2021/08/21 07:54:14;;;;;;;4.45;2.60;;;;;;;28.85;nan;95178.06;4944673;28;20422;-71
2021/08/21 07:56:40;;;;;;;7.88;2.58;;;;;;;28.76;nan;95186.09;4946761;29;20027;-73
2021/08/21 07:59:05;;;;;;;5.45;2.67;;;;;;;28.83;nan;95180.63;4946873;29;20035;-75
2021/08/21 08:01:30;;;;;;;5.97;2.97;;;;;;;28.82;nan;95183.94;4928944;29;20031;-74
2021/08/21 08:03:56;;;;;;;5.68;2.60;;;;;;;28.94;nan;95174.81;4946770;28;20059;-72
2021/08/21 08:06:21;;;;;;;4.30;2.50;;;;;;;28.95;nan;95179.06;4945059;29;20082;-72
2021/08/21 08:08:47;;;;;;;4.28;2.90;;;;;;;28.88;nan;95177.00;4945045;29;20066;-72
2021/08/21 08:11:12;;;;;;;5.15;3.20;;;;;;;28.80;nan;95169.97;4944824;29;20047;-72
2021/08/21 08:13:38;;;;;;;4.75;2.70;;;;;;;28.76;nan;95164.81;4944816;29;20031;-71
2021/08/21 08:16:03;;;;;;;4.32;2.80;;;;;;;28.80;nan;95165.22;4946222;29;20078;-79
2021/08/21 08:18:29;;;;;;;4.28;2.63;;;;;;;28.94;nan;95163.81;4946594;28;20366;-74
2021/08/21 08:20:54;;;;;;;4.80;3.00;;;;;;;29.06;nan;95176.00;4929808;29;20462;-75
2021/08/21 08:23:19;;;;;;;7.68;3.70;;;;;;;29.15;nan;95172.72;4929275;28;20638;-80
2021/08/21 08:25:45;;;;;;;5.82;2.75;;;;;;;29.16;nan;95163.19;4949009;28;20023;-83
2021/08/21 08:28:11;;;;;;;7.40;3.05;;;;;;;29.18;nan;95160.63;4931555;29;20578;-72
2021/08/21 08:30:36;;;;;;;4.50;3.05;;;;;;;29.24;nan;95169.50;4948582;28;20035;-74
2021/08/21 08:33:02;;;;;;;7.72;3.30;;;;;;;29.22;nan;95161.00;4947932;29;20090;-74
2021/08/21 08:35:27;;;;;;;3.67;2.60;;;;;;;29.35;nan;95163.66;4946592;29;20027;-73
2021/08/21 08:37:52;;;;;;;4.82;2.58;;;;;;;29.50;nan;95169.22;4947244;29;20354;-73
2021/08/21 08:40:19;;;;;;;4.70;2.63;;;;;;;29.57;nan;95174.00;4947784;29;20551;-74
2021/08/21 08:42:44;;;;;;;4.13;2.22;;;;;;;29.43;nan;95175.41;4948790;29;20022;-72
2021/08/21 08:45:11;;;;;;;4.50;2.60;;;;;;;29.47;nan;95164.81;4948353;29;20031;-72
2021/08/21 08:47:36;;;;;;;9.43;2.83;;;;;;;29.39;nan;95158.53;4947697;28;20122;-70
2021/08/21 08:50:04;;;;;;;3.80;2.47;;;;;;;29.53;nan;95157.13;4956633;28;20014;-72
2021/08/21 08:52:30;;;;;;;4.78;2.22;;;;;;;29.51;nan;95165.19;4957815;28;20546;-72
2021/08/21 08:54:55;;;;;;;7.90;3.47;;;;;;;29.54;nan;95159.31;4948218;28;20166;-72
2021/08/21 08:57:40;;;;;;;6.93;2.90;;;;;;;29.49;nan;95156.72;4948320;29;20070;-71
2021/08/21 09:00:10;;;;;;;5.78;2.78;;;;;;;29.43;nan;95153.41;4949240;28;20023;-73
2021/08/21 09:02:40;;;;;;;4.25;2.67;;;;;;;29.55;nan;95149.03;4948661;29;20031;-73
2021/08/21 09:05:08;;;;;;;5.00;2.60;;;;;;;29.53;nan;95151.59;4948841;29;20051;-73
2021/08/21 09:07:51;;;;;;;5.78;3.00;;;;;;;29.41;nan;95155.97;4948438;29;20109;-73
2021/08/21 09:10:20;;;;;;;6.57;2.97;;;;;;;29.43;nan;95147.91;4947094;29;20027;-73
2021/08/21 09:12:47;;;;;;;5.10;2.58;;;;;;;29.64;nan;95145.75;4948718;29;20023;-74
2021/08/21 09:15:23;;;;;;;5.20;2.75;;;;;;;29.57;nan;95152.00;4948221;28;20062;-73
2021/08/21 09:18:11;;;;;;;4.65;2.53;;;;;;;29.56;nan;95150.50;4907259;28;20051;-72
2021/08/21 09:20:49;;;;;;;4.28;2.80;;;;;;;29.45;nan;95134.34;4947596;28;20019;-73
2021/08/21 09:23:23;;;;;;;4.70;2.67;;;;;;;29.45;nan;95140.56;4948880;28;20475;-74
2021/08/21 09:25:53;;;;;;;6.30;2.85;;;;;;;29.55;nan;95138.03;4947874;28;20037;-73
2021/08/21 09:28:23;;;;;;;5.05;2.85;;;;;;;29.53;nan;95135.81;4948989;29;20609;-73
2021/08/21 09:30:49;;;;;;;4.35;2.72;;;;;;;29.72;nan;95136.97;4931026;29;20288;-74
2021/08/21 09:33:18;;;;;;;5.03;2.40;;;;;;;29.74;nan;95139.91;4947899;29;20506;-72
2021/08/21 09:35:43;;;;;;;3.80;2.65;;;;;;;29.69;nan;95138.06;4948901;28;20030;-76
2021/08/21 09:38:09;;;;;;;3.97;2.50;;;;;;;29.67;nan;95145.41;4931113;29;20790;-73
2021/08/21 09:40:36;;;;;;;4.88;2.92;;;;;;;29.65;nan;95127.97;4953989;28;20035;-71
2021/08/21 09:43:05;;;;;;;5.50;2.65;;;;;;;29.91;nan;95126.38;4951998;28;20514;-76
2021/08/21 09:45:35;;;;;;;3.72;2.55;;;;;;;30.20;nan;95119.38;4950337;28;20121;-76
2021/08/21 09:48:05;;;;;;;5.10;3.25;;;;;;;30.29;nan;95121.59;4948855;28;20062;-76
2021/08/21 09:50:34;;;;;;;;;;;;;;;30.33;nan;95116.44;4949237;29;20035;-74
2021/08/21 09:53:06;;;;;;;3.65;2.70;;;;;;;30.42;nan;95119.41;4948177;29;19918;-75
2021/08/21 09:55:32;;;;;;;4.53;2.95;;;;;;;30.25;nan;95126.72;4948018;29;20031;-77
2021/08/21 09:58:05;;;;;;;3.97;2.88;;;;;;;30.30;nan;95117.56;4932223;29;20109;-76
2021/08/21 10:00:32;;;;;;;3.78;2.60;;;;;;;30.27;nan;95118.66;4947836;29;20031;-74
2021/08/21 10:02:58;;;;;;;4.32;2.67;;;;;;;30.19;nan;95124.19;4932420;29;20035;-74
2021/08/21 10:05:23;;;;;;;4.25;2.70;;;;;;;30.23;nan;95123.81;4931255;29;20187;-73
2021/08/21 10:08:06;;;;;;;3.53;2.80;;;;;;;30.28;nan;95120.13;4930636;29;20035;-74
2021/08/21 10:10:48;;;;;;;3.97;2.47;;;;;;;30.18;nan;95116.47;4948158;29;20458;-76
2021/08/21 10:13:24;;;;;;;3.50;2.50;;;;;;;30.18;nan;95121.97;4949403;28;20023;-74
2021/08/21 10:15:50;;;;;;;4.22;3.00;;;;;;;30.12;nan;95118.66;4951300;28;20042;-73
2021/08/21 10:18:15;;;;;;;4.20;2.92;;;;;;;30.20;nan;95113.88;4965907;28;20655;-72
2021/08/21 10:20:41;;;;;;;3.63;2.53;;;;;;;30.16;nan;95118.28;4947978;28;20034;-73
2021/08/21 10:23:14;;;;;;;3.95;2.72;;;;;;;30.25;nan;95121.22;4947855;29;20031;-73
2021/08/21 10:25:44;;;;;;;3.33;2.92;;;;;;;30.34;nan;95118.69;4930450;29;20118;-73
2021/08/21 10:28:09;;;;;;;3.15;2.70;;;;;;;30.42;nan;95107.63;4946473;28;20027;-73
2021/08/21 10:30:39;;;;;;;5.60;2.65;;;;;;;30.59;nan;95110.56;4947364;28;20039;-73
2021/08/21 10:33:05;;;;;;;6.05;3.25;;;;;;;30.61;nan;95097.66;4947980;28;20118;-73
2021/08/21 10:35:46;;;;;;;5.75;2.85;;;;;;;30.52;100.00;63287.88;4946616;28;20090;-72
2021/08/21 10:38:40;;;;;;;3.72;3.03;;;;;;;30.55;nan;95108.16;4948053;28;20106;-74
2021/08/21 10:41:11;;;;;;;5.60;3.03;;;;;;;30.74;nan;95100.94;4945972;28;20045;-73
2021/08/21 10:43:53;;;;;;;4.32;2.60;;;;;;;30.66;nan;95103.00;4947616;28;20087;-74
2021/08/21 10:46:31;;;;;;;4.95;3.15;;;;;;;30.85;nan;95100.56;4945645;28;20097;-74
2021/08/21 10:49:03;;;;;;;4.63;2.97;;;;;;;30.96;nan;95093.91;4961964;28;20034;-74
2021/08/21 10:51:31;;;;;;;4.15;2.95;;;;;;;30.88;nan;95093.94;4949768;28;20019;-74
2021/08/21 10:53:57;;;;;;;4.85;2.97;;;;;;;30.76;nan;95092.84;4966349;28;20114;-74
2021/08/21 10:56:35;;;;;;;4.68;2.90;;;;;;;31.04;nan;95078.78;4966894;28;20030;-74
2021/08/21 10:59:01;;;;;;;5.72;3.15;;;;;;;31.04;nan;95078.78;4948080;28;20035;-74
2021/08/21 11:01:26;;;;;;;5.93;3.00;;;;;;;30.88;nan;95088.44;4947098;29;20023;-78
2021/08/21 11:03:52;;;;;;;5.25;2.97;;;;;;;30.86;nan;95090.97;4929806;29;20106;-74
2021/08/21 11:06:37;;;;;;;5.65;3.13;;;;;;;30.98;nan;95080.28;4946909;28;20518;-73
2021/08/21 11:09:10;;;;;;;5.13;3.72;;;;;;;30.91;nan;95086.56;4945410;29;20063;-73
2021/08/21 11:11:44;;;;;;;5.63;3.25;;;;;;;30.78;nan;95079.22;4945917;29;20043;-74
2021/08/21 11:14:24;;;;;;;5.15;3.20;;;;;;;30.75;nan;95074.84;4947150;29;20122;-74
2021/08/21 11:16:57;;;;;;;4.13;2.92;;;;;;;30.68;nan;95070.06;4944065;28;20075;-74
2021/08/21 11:19:28;;;;;;;4.65;3.22;;;;;;;30.88;nan;95071.88;4948994;28;20023;-74
2021/08/21 11:22:12;;;;;;;4.28;2.88;;;;;;;30.98;nan;95061.72;4944461;28;20027;-74
2021/08/21 11:24:53;;;;;;;5.40;3.05;;;;;;;30.93;nan;95068.19;4946537;28;20023;-74
2021/08/21 11:27:22;;;;;;;5.25;3.08;;;;;;;30.81;nan;95078.13;4946717;28;20804;-74
2021/08/21 11:30:12;;;;;;;4.72;3.25;;;;;;;30.83;nan;95070.00;4947120;28;20035;-74
2021/08/21 11:32:41;;;;;;;4.38;3.50;;;;;;;30.69;nan;95066.03;4937660;29;20503;-74
2021/08/21 11:35:07;;;;;;;5.33;3.20;;;;;;;30.75;nan;95069.31;4947013;28;20395;-73
2021/08/21 11:37:33;;;;;;;5.70;4.28;;;;;;;30.86;nan;95068.91;4946510;28;20274;-73
2021/08/21 11:39:59;;;;;;;5.50;3.55;;;;;;;30.99;nan;95071.47;4929366;28;20498;-74
2021/08/21 11:42:48;;;;;;;8.00;4.15;;;;;;;31.13;nan;95058.16;4947212;28;20023;-73
2021/08/21 11:45:16;;;;;;;8.48;3.83;;;;;;;31.03;nan;95060.78;4926858;28;20502;-73
2021/08/21 11:47:42;;;;;;;4.97;4.03;;;;;;;30.95;nan;95060.06;4947369;28;20032;-71
2021/08/21 11:50:31;;;;;;;5.20;3.88;;;;;;;30.84;nan;95065.97;4946902;29;20607;-73
2021/08/21 11:53:08;;;;;;;6.43;4.18;;;;;;;30.83;nan;95058.97;4946316;28;20458;-73